Main page
METAR-TAF:

METAR-TAF

Airports :

Siegerland Airport

Siegen, Germany

latitude: 50-42-28N, longitude: 008-04-59E, elevation: 602 m

Current weather observation

The report was made 41 minutes ago, at 16:50 UTC
Wind 10 kt from the North, varying between North/Northwest and North/Northeast
Temperature 14°C
Humidity 51%
Pressure 1015 hPa
Visibility 10 km or more
no clouds below 1500 m and no cumulonimbus

METAR: EDGS 201650Z 36010KT 330V030 CAVOK 14/04 Q1015

Time: 19:31 (17:31 UTC)

Forecast

The report was made 1 hour and 6 minutes ago, at 16:25 UTC
Forecast valid from 20 at 16 UTC to 20 at 24 UTC
Wind 4 kt from the North/Northwest
Visibility 10 km or more
no clouds below 1500 m and no cumulonimbus
Probability 30% :
Temporary
from 20 at 16 UTC to 20 at 18 UTC
Wind 9 kt from the North/Northwest
Broken clouds at a height of 2000 ft, Cumulonimbus.
thunderstorm, rain

TAF: EDGS 201625Z 2016/2024 33004KT CAVOK PROB30 TEMPO 2016/2018 33009KT TSRA BKN020CB

Weather observations and forecasts of more than 4000 airports (METAR and TAF reports).

The available stations are represented by yellow and red dots on the map.

Hover mouse over dot to see the name of the station.

Then click to see weather observations and forecasts.

To change the map : click on the green buttons with a black cross to zoom in, on the green button with a dash to zoom out, or on the green arrows for adjacent maps.


METAR-TAF: